Time;durP1;ratioP1;P1;durP2;ratioP2;P2;SDS_P1;SDS_P2;PMS_P1;PMS_P2;Temp;Humidity;BMP_temperature;BMP_pressure;BME280_temperature;BME280_humidity;BME280_pressure;Samples;Min_cycle;Max_cycle;Signal;HPM_P1;HPM_P2
2021/01/04 00:01:34;;;;;;;10.75;8.63;;;;;;;6.96;60.42;101551.25;4947671;28;124344;-75
2021/01/04 00:04:15;;;;;;;11.80;8.95;;;;;;;6.96;60.44;101545.97;4947453;28;124489;-75
2021/01/04 00:07:13;;;;;;;12.02;8.88;;;;;;;6.94;60.48;101550.41;4931973;28;113395;-75
2021/01/04 00:10:22;;;;;;;11.52;8.65;;;;;;;6.93;60.30;101546.03;4949489;28;114302;-75
2021/01/04 00:12:57;;;;;;;11.13;8.75;;;;;;;6.93;60.21;101546.03;4951282;28;124082;-75
2021/01/04 00:15:35;;;;;;;11.13;8.60;;;;;;;6.93;60.62;101540.75;4916760;28;123563;-75
2021/01/04 00:18:19;;;;;;;11.60;8.95;;;;;;;6.92;60.70;101536.41;4949715;28;114250;-75
2021/01/04 00:20:54;;;;;;;11.38;8.05;;;;;;;6.91;60.50;101537.28;4948286;28;113845;-75
2021/01/04 00:23:45;;;;;;;12.13;8.85;;;;;;;6.90;60.42;101535.56;4948029;28;123972;-75
2021/01/04 00:26:19;;;;;;;12.73;9.02;;;;;;;6.89;60.47;101534.69;4931891;28;124671;-75
2021/01/04 00:28:46;;;;;;;13.05;9.38;;;;;;;6.89;60.83;101539.09;4932570;28;113226;-75
2021/01/04 00:31:18;;;;;;;10.93;8.68;;;;;;;6.89;60.70;101539.09;4950440;28;114679;-75
2021/01/04 00:33:55;;;;;;;12.73;10.35;;;;;;;6.87;60.49;101540.88;4929777;28;124186;-75
2021/01/04 00:36:29;;;;;;;12.63;9.52;;;;;;;6.85;60.68;101532.16;4949052;28;123614;-75
2021/01/04 00:39:20;;;;;;;15.32;9.85;;;;;;;6.82;60.82;101536.56;4930418;28;115137;-75
2021/01/04 00:42:02;;;;;;;13.20;10.45;;;;;;;6.82;60.88;101533.09;4933947;28;114407;-75
2021/01/04 00:44:34;;;;;;;13.10;9.15;;;;;;;6.79;60.78;101526.09;4946926;28;129594;-75
2021/01/04 00:47:15;;;;;;;12.60;9.30;;;;;;;6.78;60.69;101527.00;4948131;28;123625;-75
2021/01/04 00:49:49;;;;;;;13.63;9.57;;;;;;;6.78;61.08;101521.75;4935518;28;113680;-75
2021/01/04 00:52:46;;;;;;;13.35;9.95;;;;;;;6.77;60.87;101525.25;4952401;28;113596;-75
2021/01/04 00:55:57;;;;;;;14.18;9.98;;;;;;;6.76;60.73;101523.53;4915121;28;124664;-75
2021/01/04 00:58:27;;;;;;;12.25;9.30;;;;;;;6.78;60.77;101521.75;4930339;28;122968;-75
2021/01/04 01:01:06;;;;;;;12.90;9.82;;;;;;;6.78;60.90;101515.59;4951330;28;114434;-75
2021/01/04 01:03:47;;;;;;;14.05;10.15;;;;;;;6.80;60.86;101525.22;4931409;28;114019;-76
2021/01/04 01:06:21;;;;;;;13.35;10.00;;;;;;;6.81;61.07;101524.28;4943388;28;124104;-76
2021/01/04 01:08:53;;;;;;;12.48;9.57;;;;;;;6.81;60.55;101526.94;4915992;28;126228;-75
2021/01/04 01:11:36;;;;;;;13.90;10.10;;;;;;;6.80;60.93;101525.22;4932989;28;114064;-75
2021/01/04 01:14:24;;;;;;;13.20;10.35;;;;;;;6.79;60.89;101526.09;4926457;28;112780;-75
2021/01/04 01:17:12;;;;;;;14.02;10.35;;;;;;;6.78;60.90;101527.00;4928530;28;123941;-75
2021/01/04 01:19:44;;;;;;;15.02;10.45;;;;;;;6.78;61.03;101527.00;4948474;28;123851;-75
2021/01/04 01:22:32;;;;;;;15.88;11.13;;;;;;;6.77;61.12;101525.25;4927918;28;113468;-75
2021/01/04 01:25:05;;;;;;;14.30;11.02;;;;;;;6.78;61.02;101527.00;4936914;28;113486;-76
2021/01/04 01:27:42;;;;;;;15.70;10.40;;;;;;;6.77;60.99;101533.16;4947306;28;123006;-75
2021/01/04 01:30:10;;;;;;;15.23;10.93;;;;;;;6.79;60.88;101527.88;4946836;28;124419;-75
2021/01/04 01:33:16;;;;;;;14.93;10.70;;;;;;;6.77;61.03;101530.50;4951160;28;115212;-76
2021/01/04 01:36:07;;;;;;;15.82;10.40;;;;;;;6.74;61.22;101530.59;4945050;28;114987;-75
2021/01/04 01:38:56;;;;;;;16.88;10.75;;;;;;;6.74;61.08;101530.59;4944949;28;125010;-76
2021/01/04 01:41:28;;;;;;;15.30;10.65;;;;;;;6.73;61.16;101534.09;4944548;28;123839;-75
2021/01/04 01:44:05;;;;;;;13.95;10.93;;;;;;;6.70;61.21;101534.16;4931598;28;113846;-76
2021/01/04 01:46:45;;;;;;;15.05;11.45;;;;;;;6.67;61.29;101534.22;4940877;28;113136;-76
2021/01/04 01:49:30;;;;;;;16.25;11.18;;;;;;;6.65;61.49;101536.03;4958819;28;123176;-76
2021/01/04 01:52:19;;;;;;;19.85;12.77;;;;;;;6.62;61.50;101530.81;4932447;28;123695;-75
2021/01/04 01:55:01;;;;;;;14.52;11.02;;;;;;;6.59;61.63;101541.38;4946134;28;114148;-76
2021/01/04 01:57:37;;;;;;;15.43;10.23;;;;;;;6.59;61.94;101541.38;4925436;28;113705;-75
2021/01/04 02:00:32;;;;;;;13.45;9.43;;;;;;;6.60;61.53;101537.84;4937711;28;124324;-76
2021/01/04 02:03:10;;;;;;;14.20;10.25;;;;;;;6.61;61.73;101550.09;4929833;28;124166;-76
2021/01/04 02:05:53;;;;;;;12.07;9.18;;;;;;;6.60;61.50;101543.13;4947622;28;114217;-76
2021/01/04 02:08:26;;;;;;;11.32;8.65;;;;;;;6.59;61.78;101541.38;4948281;28;113996;-75
2021/01/04 02:10:57;;;;;;;11.10;7.88;;;;;;;6.59;61.68;101546.63;4946547;28;124900;-76
2021/01/04 02:13:35;;;;;;;11.27;8.55;;;;;;;6.58;61.53;101545.78;4944166;28;125236;-76
2021/01/04 02:16:18;;;;;;;10.68;7.97;;;;;;;6.55;61.48;101550.22;4947470;28;115236;-75
2021/01/04 02:19:02;;;;;;;10.48;7.82;;;;;;;6.51;61.69;101551.16;4929957;28;112917;-75
2021/01/04 02:21:59;;;;;;;11.02;7.53;;;;;;;6.48;61.82;101559.09;4929569;28;123253;-75
2021/01/04 02:24:27;;;;;;;12.18;8.60;;;;;;;6.43;61.63;101546.91;4937782;28;123813;-76
2021/01/04 02:27:08;;;;;;;10.40;7.90;;;;;;;6.41;61.75;101555.72;4948750;28;115903;-75
2021/01/04 02:29:34;;;;;;;11.50;8.23;;;;;;;6.41;61.79;101550.47;4956119;28;113980;-76
2021/01/04 02:32:05;;;;;;;11.25;9.05;;;;;;;6.41;61.75;101556.56;4915112;28;122123;-76
2021/01/04 02:34:45;;;;;;;12.00;8.27;;;;;;;6.40;61.90;101552.22;4947734;28;123600;-76
2021/01/04 02:37:13;;;;;;;9.88;7.57;;;;;;;6.40;61.66;101549.59;4927507;28;113846;-76
2021/01/04 02:39:49;;;;;;;9.82;7.05;;;;;;;6.39;61.83;101549.63;4927549;28;113051;-76
2021/01/04 02:42:24;;;;;;;10.45;8.10;;;;;;;6.37;61.63;101541.75;4945459;28;124375;-76
2021/01/04 02:44:51;;;;;;;10.10;7.30;;;;;;;6.38;61.79;101548.72;4948200;28;124185;-75
2021/01/04 02:48:01;;;;;;;10.57;8.18;;;;;;;6.38;61.61;101543.47;4948708;28;114252;-76
2021/01/04 02:50:51;;;;;;;10.77;7.43;;;;;;;6.38;61.63;101551.34;4854062;28;114348;-76
2021/01/04 02:53:36;;;;;;;9.23;6.80;;;;;;;6.39;61.78;101566.25;4838043;29;122904;-76
2021/01/04 02:56:21;;;;;;;8.82;7.05;;;;;;;6.38;61.88;101553.13;4917310;28;123665;-76
2021/01/04 02:59:04;;;;;;;9.33;7.40;;;;;;;6.37;61.98;101552.25;4947709;28;114025;-75
2021/01/04 03:01:59;;;;;;;9.48;6.68;;;;;;;6.35;61.95;101559.31;4933343;28;113515;-76
2021/01/04 03:04:27;;;;;;;8.23;6.72;;;;;;;6.34;61.97;101552.31;4942379;28;122965;-75
2021/01/04 03:07:10;;;;;;;9.30;6.90;;;;;;;6.34;61.72;101556.72;4931714;28;124454;-76
2021/01/04 03:09:42;;;;;;;8.07;6.53;;;;;;;6.33;61.90;101560.22;4952588;28;114111;-75
2021/01/04 03:12:15;;;;;;;9.13;6.63;;;;;;;6.32;62.08;101558.50;4953634;28;113937;-75
2021/01/04 03:14:59;;;;;;;7.07;6.22;;;;;;;6.30;61.85;101550.63;4931738;28;123790;-76
2021/01/04 03:17:48;;;;;;;9.77;6.38;;;;;;;6.27;61.53;101545.41;4936118;28;123796;-75
2021/01/04 03:20:18;;;;;;;7.85;6.75;;;;;;;6.25;61.72;101547.19;4949032;28;115178;-75
2021/01/04 03:22:46;;;;;;;7.55;6.18;;;;;;;6.24;61.78;101548.09;4937314;28;114491;-76
2021/01/04 03:25:31;;;;;;;8.95;6.40;;;;;;;6.23;61.94;101538.44;4949406;28;123731;-76
2021/01/04 03:27:59;;;;;;;8.82;6.80;;;;;;;6.22;61.69;101534.97;4927108;28;122669;-76
2021/01/04 03:30:26;;;;;;;8.73;6.85;;;;;;;6.21;61.89;101542.88;4943281;28;114326;-76
2021/01/04 03:32:53;;;;;;;8.32;6.20;;;;;;;6.20;61.94;101538.53;4933897;28;113009;-76
2021/01/04 03:35:19;;;;;;;8.13;6.55;;;;;;;6.19;61.72;101536.78;4933736;28;125204;-76
2021/01/04 03:37:46;;;;;;;8.07;6.28;;;;;;;6.18;62.18;101540.31;4936026;28;121345;-76
2021/01/04 03:40:14;;;;;;;8.77;6.78;;;;;;;6.20;61.90;101549.03;4951597;28;114895;-76
2021/01/04 03:42:41;;;;;;;8.02;6.38;;;;;;;6.19;61.97;101536.78;4918481;28;113200;-76
2021/01/04 03:45:08;;;;;;;7.75;6.53;;;;;;;6.18;62.08;101545.56;4950429;28;124769;-76
2021/01/04 03:47:35;;;;;;;6.82;6.10;;;;;;;6.17;62.19;101538.56;4934135;28;122692;-76
2021/01/04 03:50:07;;;;;;;7.70;6.88;;;;;;;6.16;62.09;101539.44;4934766;28;114978;-76
2021/01/04 03:52:33;;;;;;;8.02;6.40;;;;;;;6.17;62.00;101549.06;4917554;28;113507;-76
2021/01/04 03:55:00;;;;;;;6.90;5.88;;;;;;;6.16;61.86;101542.97;4950940;28;123939;-75
2021/01/04 03:57:27;;;;;;;7.68;6.85;;;;;;;6.15;62.05;101545.59;4951467;28;124046;-76
2021/01/04 03:59:53;;;;;;;7.47;6.43;;;;;;;6.12;61.69;101540.38;4933903;28;114199;-76
2021/01/04 04:02:20;;;;;;;8.18;6.32;;;;;;;6.11;62.11;101543.91;4935170;28;112982;-76
2021/01/04 04:04:47;;;;;;;7.00;5.82;;;;;;;6.11;61.94;101543.91;4926359;28;123027;-76
2021/01/04 04:07:14;;;;;;;7.80;6.10;;;;;;;6.11;62.11;101543.91;4937953;28;123195;-76
2021/01/04 04:09:40;;;;;;;7.25;5.85;;;;;;;6.11;62.03;101538.66;4938074;28;114733;-75
2021/01/04 04:12:07;;;;;;;9.18;6.68;;;;;;;6.11;62.20;101544.78;4952266;28;114504;-76
2021/01/04 04:14:33;;;;;;;8.02;6.50;;;;;;;6.11;62.16;101541.28;4947399;28;124070;-75
2021/01/04 04:17:00;;;;;;;8.32;6.38;;;;;;;6.10;61.76;101536.91;4932441;28;124441;-76
2021/01/04 04:19:26;;;;;;;6.95;6.07;;;;;;;6.10;61.97;101537.78;4932594;28;113509;-76
2021/01/04 04:21:53;;;;;;;8.18;6.70;;;;;;;6.10;62.08;101536.91;4952453;28;113827;-76
2021/01/04 04:24:21;;;;;;;8.10;6.43;;;;;;;6.09;62.05;101540.44;4919739;28;123453;-76
2021/01/04 04:26:51;;;;;;;7.88;6.65;;;;;;;6.08;62.05;101543.94;4953732;28;123850;-76
2021/01/04 04:29:18;;;;;;;7.50;6.45;;;;;;;6.07;62.24;101542.25;4915804;28;114170;-76
2021/01/04 04:31:47;;;;;;;8.43;6.80;;;;;;;6.07;62.34;101542.25;4933748;28;114790;-76
2021/01/04 04:34:15;;;;;;;8.65;7.53;;;;;;;6.08;62.23;101543.94;4950211;28;124145;-76
2021/01/04 04:36:43;;;;;;;7.90;6.60;;;;;;;6.07;62.25;101536.97;4950352;28;124598;-75
2021/01/04 04:39:12;;;;;;;8.38;6.97;;;;;;;6.07;62.06;101536.97;4950715;28;114634;-76
2021/01/04 04:41:42;;;;;;;8.27;6.65;;;;;;;6.10;61.98;101547.44;4932220;28;112979;-75
2021/01/04 04:44:46;;;;;;;11.00;7.25;;;;;;;6.07;61.99;101543.09;4924608;28;123465;-75
2021/01/04 04:47:32;;;;;;;7.70;6.90;;;;;;;6.08;62.27;101546.59;4929405;28;123468;-76
2021/01/04 04:50:16;;;;;;;8.43;6.55;;;;;;;6.05;62.03;101542.25;4959715;28;114410;-75
2021/01/04 04:53:08;;;;;;;8.23;6.45;;;;;;;6.06;62.25;101545.75;4938652;28;112247;-75
2021/01/04 04:55:59;;;;;;;7.63;5.88;;;;;;;6.06;62.09;101553.63;4952841;28;124328;-76
2021/01/04 04:58:45;;;;;;;8.82;7.43;;;;;;;6.07;62.33;101542.25;4962431;28;123680;-75
2021/01/04 05:01:41;;;;;;;7.40;6.15;;;;;;;6.07;62.13;101547.50;4949454;28;115277;-75
2021/01/04 05:04:46;;;;;;;7.53;6.55;;;;;;;6.07;62.36;101543.09;4950112;28;115773;-76
2021/01/04 05:07:27;;;;;;;8.18;6.18;;;;;;;6.11;62.22;101549.19;4889982;28;124411;-75
2021/01/04 05:10:09;;;;;;;8.15;6.38;;;;;;;6.08;61.98;101549.22;4936087;28;123160;-75
2021/01/04 05:12:43;;;;;;;7.70;6.20;;;;;;;6.09;61.93;101540.44;4935368;28;113234;-76
2021/01/04 05:15:31;;;;;;;7.63;6.60;;;;;;;6.10;62.09;101552.69;4948831;28;114328;-76
2021/01/04 05:17:58;;;;;;;7.22;6.00;;;;;;;6.10;62.11;101547.44;4946409;28;123987;-75
2021/01/04 05:21:05;;;;;;;7.65;6.75;;;;;;;6.09;61.98;101556.22;4950212;28;123796;-75
2021/01/04 05:24:02;;;;;;;8.18;6.20;;;;;;;6.08;62.13;101549.22;4944806;28;113558;-75
2021/01/04 05:26:36;;;;;;;6.53;5.65;;;;;;;6.08;61.89;101551.84;4929106;28;113633;-75
2021/01/04 05:29:21;;;;;;;6.88;5.78;;;;;;;6.09;62.22;101556.22;4929220;28;124408;-75
2021/01/04 05:32:10;;;;;;;6.15;5.55;;;;;;;6.10;62.13;101558.81;4915106;28;123728;-75
2021/01/04 05:34:37;;;;;;;6.53;5.70;;;;;;;6.13;61.77;101557.91;4947097;28;114605;-75
2021/01/04 05:37:41;;;;;;;6.95;5.82;;;;;;;6.10;62.05;101573.72;4946692;28;112711;-75
2021/01/04 05:40:42;;;;;;;7.57;5.82;;;;;;;6.13;61.86;101573.69;4946827;28;124337;-75
2021/01/04 05:43:12;;;;;;;7.60;6.20;;;;;;;6.16;62.06;101571.00;4943937;28;123687;-76
2021/01/04 05:46:08;;;;;;;7.40;6.10;;;;;;;6.15;62.27;101574.53;4928287;28;114631;-75
2021/01/04 05:49:12;;;;;;;8.55;6.45;;;;;;;6.16;62.24;101584.16;4945504;28;114521;-75
2021/01/04 05:51:43;;;;;;;6.68;5.50;;;;;;;6.16;62.15;101573.63;4948313;28;123994;-75
2021/01/04 05:54:12;;;;;;;8.32;5.90;;;;;;;6.16;61.91;101573.63;4946144;28;123606;-75
2021/01/04 05:56:39;;;;;;;8.10;5.97;;;;;;;6.17;62.12;101570.13;4949335;28;115022;-76
2021/01/04 05:59:08;;;;;;;6.53;5.80;;;;;;;6.18;62.05;101582.38;4931914;28;114883;-75
2021/01/04 06:01:37;;;;;;;7.50;6.13;;;;;;;6.18;62.02;101571.88;4912856;28;123232;-75
2021/01/04 06:04:07;;;;;;;7.10;6.10;;;;;;;6.17;61.85;101575.38;4948198;28;123681;-76
2021/01/04 06:06:52;;;;;;;6.65;5.72;;;;;;;6.18;61.95;101582.38;4939651;28;114190;-75
2021/01/04 06:09:21;;;;;;;6.45;5.47;;;;;;;6.18;61.86;101579.75;4917825;28;112902;-76
2021/01/04 06:11:59;;;;;;;6.72;5.70;;;;;;;6.18;61.95;101579.75;4932031;28;123523;-76
2021/01/04 06:14:37;;;;;;;6.03;5.43;;;;;;;6.20;62.02;101583.22;4947447;28;124170;-75
2021/01/04 06:17:22;;;;;;;7.80;6.25;;;;;;;6.20;61.68;101591.13;4914648;28;114193;-76
2021/01/04 06:19:51;;;;;;;6.63;5.93;;;;;;;6.22;61.65;101586.72;4930502;28;113925;-76
2021/01/04 06:22:28;;;;;;;6.80;5.55;;;;;;;6.22;61.93;101594.59;4930548;28;123976;-76
2021/01/04 06:25:00;;;;;;;7.28;6.13;;;;;;;6.23;61.79;101591.06;4929882;28;123365;-75
2021/01/04 06:27:45;;;;;;;7.00;5.85;;;;;;;6.22;61.80;101589.34;4947318;28;114172;-76
2021/01/04 06:30:19;;;;;;;7.28;5.50;;;;;;;6.22;61.76;101595.47;4920989;28;113220;-76
2021/01/04 06:32:48;;;;;;;6.00;4.78;;;;;;;6.24;62.04;101592.81;4947283;28;124309;-75
2021/01/04 06:35:28;;;;;;;7.15;5.82;;;;;;;6.26;61.74;101601.53;4935236;28;123780;-76
2021/01/04 06:38:26;;;;;;;5.97;5.38;;;;;;;6.27;61.92;101598.00;4930326;28;113559;-76
2021/01/04 06:40:54;;;;;;;6.97;5.25;;;;;;;6.29;61.82;101600.63;4948819;28;113983;-75
2021/01/04 06:43:33;;;;;;;6.53;5.70;;;;;;;6.27;61.87;101603.25;4945228;28;123009;-76
2021/01/04 06:46:05;;;;;;;6.35;5.53;;;;;;;6.28;61.48;101605.03;4943588;28;123713;-76
2021/01/04 06:48:52;;;;;;;6.85;5.88;;;;;;;6.29;61.71;101606.78;4933591;28;114177;-76
2021/01/04 06:52:04;;;;;;;7.32;5.50;;;;;;;6.29;61.54;101604.16;4945399;28;114775;-76
2021/01/04 06:54:57;;;;;;;8.43;5.63;;;;;;;6.29;61.51;101612.03;4944948;28;124060;-76
2021/01/04 06:58:05;;;;;;;6.35;5.60;;;;;;;6.26;61.37;101606.81;4927620;28;124851;-75
2021/01/04 07:01:12;;;;;;;7.78;5.05;;;;;;;6.23;61.58;101609.47;4930744;28;114453;-76
2021/01/04 07:03:39;;;;;;;7.20;5.28;;;;;;;6.22;61.08;101620.91;4943695;28;113911;-76
2021/01/04 07:06:05;;;;;;;6.72;5.25;;;;;;;6.21;61.49;101621.78;4946908;28;123530;-76
2021/01/04 07:09:01;;;;;;;5.70;4.80;;;;;;;6.20;61.21;101620.91;4935141;28;122799;-75
2021/01/04 07:11:54;;;;;;;6.10;5.03;;;;;;;6.20;61.28;101622.69;4940604;28;114492;-75
2021/01/04 07:14:42;;;;;;;5.07;4.40;;;;;;;6.22;61.27;101631.44;4924421;28;114622;-75
2021/01/04 07:17:19;;;;;;;5.07;4.45;;;;;;;6.21;61.45;101629.66;4927034;28;123850;-75
2021/01/04 07:20:02;;;;;;;5.13;4.63;;;;;;;6.21;61.57;101635.78;4944060;28;123439;-75
2021/01/04 07:22:50;;;;;;;6.30;4.40;;;;;;;6.20;61.52;101630.56;4945952;28;116038;-75
2021/01/04 07:25:27;;;;;;;6.13;4.60;;;;;;;6.22;61.58;101636.69;4944919;28;114571;-75
2021/01/04 07:28:16;;;;;;;5.40;4.70;;;;;;;6.21;61.40;101630.53;4945740;28;124123;-75
2021/01/04 07:31:23;;;;;;;5.25;4.53;;;;;;;6.21;61.46;101634.94;4926793;28;123377;-75
2021/01/04 07:34:01;;;;;;;6.07;4.68;;;;;;;6.23;61.72;101635.78;4942450;28;113810;-75
2021/01/04 07:37:16;;;;;;;5.78;5.18;;;;;;;6.22;61.54;101634.06;4928236;28;113169;-76
2021/01/04 07:39:49;;;;;;;6.63;5.03;;;;;;;6.22;61.58;101631.44;4843253;28;123470;-76
2021/01/04 07:43:03;;;;;;;5.55;4.30;;;;;;;6.21;61.41;101629.66;4931431;28;124166;-76
2021/01/04 07:45:56;;;;;;;5.00;4.45;;;;;;;6.23;61.58;101638.41;4911525;28;114189;-76
2021/01/04 07:48:41;;;;;;;5.53;4.57;;;;;;;6.24;61.34;101640.16;4952564;28;115565;-76
2021/01/04 07:51:36;;;;;;;5.75;4.72;;;;;;;6.21;61.41;101625.28;4949374;28;123684;-76
2021/01/04 07:54:11;;;;;;;4.80;4.30;;;;;;;6.20;61.04;101639.34;4946791;28;123708;-76
2021/01/04 07:57:10;;;;;;;6.03;4.75;;;;;;;6.19;61.33;101641.97;4924639;28;113603;-75
2021/01/04 07:59:56;;;;;;;5.15;4.22;;;;;;;6.19;60.99;101639.34;4918046;28;113119;-76
2021/01/04 08:02:53;;;;;;;4.82;4.00;;;;;;;6.18;61.44;101638.47;4943478;28;123328;-76
2021/01/04 08:05:45;;;;;;;5.18;4.32;;;;;;;6.19;61.38;101648.09;4957800;28;123571;-76
2021/01/04 08:08:27;;;;;;;4.57;4.18;;;;;;;6.20;61.31;101649.00;4943535;28;112586;-76
2021/01/04 08:11:09;;;;;;;4.60;3.80;;;;;;;6.22;61.19;101652.47;4949075;28;114034;-75
2021/01/04 08:14:07;;;;;;;4.45;3.60;;;;;;;6.21;61.44;101661.22;4946064;28;124908;-76
2021/01/04 08:16:49;;;;;;;5.10;4.43;;;;;;;6.22;61.23;101663.00;4932038;28;122012;-76
2021/01/04 08:19:18;;;;;;;4.50;3.72;;;;;;;6.22;61.21;101665.63;4951879;28;114139;-76
2021/01/04 08:21:57;;;;;;;5.15;4.22;;;;;;;6.22;61.12;101668.25;4931136;28;113742;-76
2021/01/04 08:24:34;;;;;;;4.60;4.10;;;;;;;6.22;61.39;101663.00;4946708;28;124128;-76
2021/01/04 08:27:17;;;;;;;4.93;3.85;;;;;;;6.23;61.38;101669.97;4947898;28;124940;-76
2021/01/04 08:30:13;;;;;;;4.72;4.10;;;;;;;6.23;61.25;101680.50;4949295;28;113716;-78
2021/01/04 08:33:04;;;;;;;4.40;3.80;;;;;;;6.23;61.32;101675.22;4907233;28;114638;-77
2021/01/04 08:35:40;;;;;;;4.43;3.88;;;;;;;6.24;61.34;101676.97;4951996;28;123834;-76
2021/01/04 08:38:36;;;;;;;5.53;4.35;;;;;;;6.24;61.77;101683.09;4932114;28;123112;-77
2021/01/04 08:41:15;;;;;;;5.38;4.30;;;;;;;6.25;61.23;101683.97;4945770;28;114955;-76
2021/01/04 08:43:45;;;;;;;6.05;4.72;;;;;;;6.25;61.44;101678.72;4942833;28;114928;-77
2021/01/04 08:46:24;;;;;;;6.50;4.25;;;;;;;6.26;61.51;101685.72;4909770;28;125018;-76
2021/01/04 08:48:54;;;;;;;5.22;4.55;;;;;;;6.27;61.42;101682.19;4944175;28;123489;-76
2021/01/04 08:51:34;;;;;;;5.32;4.25;;;;;;;6.25;61.83;101683.97;4933558;28;113535;-76
2021/01/04 08:54:21;;;;;;;5.57;4.60;;;;;;;6.28;61.44;101689.19;4948969;28;114253;-76
2021/01/04 08:56:51;;;;;;;5.30;4.28;;;;;;;6.27;61.50;101690.06;4926537;28;123521;-76
2021/01/04 08:59:22;;;;;;;5.20;4.28;;;;;;;6.28;61.50;101699.72;4941874;28;124107;-76
2021/01/04 09:01:53;;;;;;;5.78;4.55;;;;;;;6.29;61.58;101696.22;4932160;28;113948;-76
2021/01/04 09:04:39;;;;;;;6.13;4.25;;;;;;;6.29;61.69;101696.22;4921055;28;113821;-76
2021/01/04 09:07:13;;;;;;;5.40;4.90;;;;;;;6.31;61.73;101699.69;4936241;28;123876;-76
2021/01/04 09:09:52;;;;;;;4.97;4.15;;;;;;;6.32;61.69;101706.69;4927497;28;122945;-76
2021/01/04 09:12:29;;;;;;;4.68;3.85;;;;;;;6.33;61.86;101697.91;4940030;28;113913;-76
2021/01/04 09:15:19;;;;;;;5.43;4.22;;;;;;;6.34;61.86;101699.63;4928568;28;112237;-77
2021/01/04 09:17:50;;;;;;;5.75;4.30;;;;;;;6.36;61.62;101703.09;4928242;28;123651;-76
2021/01/04 09:20:25;;;;;;;4.32;3.85;;;;;;;6.37;61.59;101710.13;4949919;28;123927;-76
2021/01/04 09:23:06;;;;;;;4.45;3.95;;;;;;;6.37;61.86;101710.13;4944155;28;114349;-76
2021/01/04 09:25:50;;;;;;;4.43;3.90;;;;;;;6.38;61.73;101714.47;4943871;28;114005;-76
2021/01/04 09:28:20;;;;;;;4.20;3.63;;;;;;;6.37;61.65;101710.13;4924394;28;124281;-76
2021/01/04 09:30:49;;;;;;;4.25;3.53;;;;;;;6.38;61.71;101711.00;4930202;28;123264;-76
2021/01/04 09:33:20;;;;;;;5.30;4.10;;;;;;;6.35;61.77;101711.91;4924389;28;116449;-77
2021/01/04 09:35:48;;;;;;;5.50;4.38;;;;;;;6.36;62.03;101713.63;4947056;28;114938;-78
2021/01/04 09:38:25;;;;;;;4.93;4.38;;;;;;;6.33;61.76;101707.53;4927467;28;123438;-77
2021/01/04 09:40:55;;;;;;;5.60;4.00;;;;;;;6.31;62.23;101712.84;4931409;28;123568;-77
2021/01/04 09:43:34;;;;;;;4.93;3.75;;;;;;;6.29;61.90;101716.38;4925560;28;114568;-77
2021/01/04 09:46:23;;;;;;;4.65;3.70;;;;;;;6.28;62.24;101719.91;4942129;28;114090;-76
2021/01/04 09:49:07;;;;;;;4.63;3.70;;;;;;;6.28;62.19;101718.13;4937723;28;123174;-78
2021/01/04 09:51:39;;;;;;;4.68;3.95;;;;;;;6.28;62.27;101726.03;4944282;28;122866;-76
2021/01/04 09:54:10;;;;;;;5.55;3.90;;;;;;;6.29;62.40;101717.25;4933410;28;113622;-77
2021/01/04 09:56:39;;;;;;;4.85;4.03;;;;;;;6.28;62.27;101720.75;4942597;28;113864;-77
2021/01/04 09:59:17;;;;;;;4.65;3.70;;;;;;;6.27;62.23;101729.53;4936129;28;122878;-76
2021/01/04 10:01:48;;;;;;;4.60;4.03;;;;;;;6.28;62.68;101731.28;4939767;28;123498;-76
2021/01/04 10:04:25;;;;;;;4.75;4.07;;;;;;;6.28;62.55;101736.56;4931882;28;115369;-76
2021/01/04 10:06:52;;;;;;;5.63;4.30;;;;;;;6.31;62.64;101731.25;4938343;28;113984;-76
2021/01/04 10:09:19;;;;;;;4.70;3.85;;;;;;;6.34;62.74;101730.34;4935693;28;124379;-76
2021/01/04 10:11:49;;;;;;;6.82;4.18;;;;;;;6.36;62.88;101726.78;4923481;28;124280;-76
2021/01/04 10:14:19;;;;;;;5.82;3.92;;;;;;;6.41;62.52;101730.25;4915094;28;113835;-77
2021/01/04 10:16:51;;;;;;;4.97;3.75;;;;;;;6.45;62.73;101727.56;4938103;28;114924;-77
2021/01/04 10:19:23;;;;;;;5.78;3.85;;;;;;;6.49;62.67;101734.53;4943728;28;124128;-76
2021/01/04 10:22:24;;;;;;;4.72;3.72;;;;;;;6.51;62.88;101727.47;4935331;28;124411;-76
2021/01/04 10:25:02;;;;;;;5.15;4.03;;;;;;;6.53;62.94;101730.97;4925762;28;115169;-76
2021/01/04 10:27:30;;;;;;;4.85;4.15;;;;;;;6.56;62.93;101726.53;4927026;28;115208;-76
2021/01/04 10:30:19;;;;;;;5.05;3.85;;;;;;;6.61;62.73;101718.56;4936553;28;124628;-75
2021/01/04 10:32:46;;;;;;;5.82;4.38;;;;;;;6.63;62.76;101735.22;4934683;28;124791;-75
2021/01/04 10:35:23;;;;;;;4.88;4.15;;;;;;;6.66;62.68;101722.00;4930537;28;113555;-75
2021/01/04 10:38:17;;;;;;;5.80;4.25;;;;;;;6.69;62.35;101721.97;4921295;28;113977;-76
2021/01/04 10:40:47;;;;;;;4.90;4.00;;;;;;;6.70;62.61;101718.41;4944609;28;124378;-74
2021/01/04 10:43:25;;;;;;;5.40;4.70;;;;;;;6.73;62.53;101718.38;4926267;28;124676;-74
2021/01/04 10:46:16;;;;;;;5.07;4.45;;;;;;;6.75;62.47;101713.97;4943167;28;114127;-74
2021/01/04 10:48:57;;;;;;;5.25;4.38;;;;;;;6.77;62.36;101717.44;4933954;28;113998;-75
2021/01/04 10:51:25;;;;;;;5.85;4.20;;;;;;;6.79;62.05;101720.91;4937261;28;123256;-75
2021/01/04 10:53:52;;;;;;;4.93;4.28;;;;;;;6.78;62.03;101711.28;4950006;28;123603;-73
2021/01/04 10:56:18;;;;;;;5.25;4.20;;;;;;;6.78;61.87;101711.28;4936542;28;113588;-74
2021/01/04 10:59:03;;;;;;;6.20;4.53;;;;;;;6.77;61.87;101714.81;4936065;28;113315;-75
2021/01/04 11:01:34;;;;;;;5.22;4.15;;;;;;;6.78;61.74;101706.03;4920037;28;123597;-74
2021/01/04 11:04:11;;;;;;;5.70;4.65;;;;;;;6.78;62.09;101707.78;4934634;28;124003;-74
2021/01/04 11:06:41;;;;;;;6.30;5.30;;;;;;;6.80;61.67;101706.88;4930885;28;114142;-75
2021/01/04 11:09:19;;;;;;;6.10;4.30;;;;;;;6.82;61.89;101707.72;4948826;28;113503;-75
2021/01/04 11:11:49;;;;;;;5.60;4.32;;;;;;;6.85;62.14;101703.28;4933680;28;124409;-75
2021/01/04 11:14:22;;;;;;;4.50;3.80;;;;;;;6.86;62.15;101694.50;4959128;28;123038;-75
2021/01/04 11:17:12;;;;;;;4.53;3.78;;;;;;;6.87;62.12;101699.72;4950990;28;115658;-75
2021/01/04 11:19:38;;;;;;;5.72;4.50;;;;;;;6.88;62.40;101692.72;4940899;28;115419;-74
2021/01/04 11:22:17;;;;;;;5.35;4.00;;;;;;;6.88;62.02;101690.09;4942663;28;123230;-74
2021/01/04 11:24:46;;;;;;;4.63;3.78;;;;;;;6.88;62.24;101684.81;4941054;28;122436;-76
2021/01/04 11:27:13;;;;;;;4.53;4.00;;;;;;;6.88;62.12;101685.69;4938924;28;114098;-75
2021/01/04 11:29:41;;;;;;;4.95;3.40;;;;;;;6.91;62.19;101687.38;4955347;28;113940;-75
2021/01/04 11:32:12;;;;;;;5.80;4.13;;;;;;;6.91;62.03;101684.75;4938231;28;124434;-76
2021/01/04 11:34:47;;;;;;;4.97;3.90;;;;;;;6.92;62.09;101683.88;4952618;28;123720;-75
2021/01/04 11:37:15;;;;;;;5.20;3.72;;;;;;;6.92;61.90;101686.50;4909621;28;113609;-76
2021/01/04 11:39:42;;;;;;;4.68;3.88;;;;;;;6.91;61.95;101680.38;4936523;28;114253;-75
2021/01/04 11:42:10;;;;;;;5.50;3.95;;;;;;;6.90;61.81;101683.03;4934096;28;123364;-75
2021/01/04 11:44:37;;;;;;;5.07;4.15;;;;;;;6.87;61.82;101673.41;4935092;28;123632;-74
2021/01/04 11:47:04;;;;;;;5.22;4.50;;;;;;;6.83;61.90;101680.47;4951980;28;114123;-74
2021/01/04 11:49:31;;;;;;;6.47;4.05;;;;;;;6.82;62.21;101675.25;4946411;28;113489;-74
2021/01/04 11:51:58;;;;;;;4.68;3.72;;;;;;;6.80;61.99;101675.28;4936299;28;123491;-75
2021/01/04 11:54:25;;;;;;;5.70;4.30;;;;;;;6.78;61.99;101674.44;4920788;28;122792;-75
2021/01/04 11:56:52;;;;;;;8.13;4.43;;;;;;;6.78;61.83;101674.44;4936813;28;112459;-75
2021/01/04 11:59:19;;;;;;;4.45;4.05;;;;;;;6.76;62.29;101676.22;4938870;28;114085;-75
2021/01/04 12:01:46;;;;;;;5.22;4.10;;;;;;;6.73;62.41;101659.59;4932211;28;124107;-74
2021/01/04 12:04:12;;;;;;;5.68;4.30;;;;;;;6.71;62.30;101667.53;4940139;28;122996;-75
2021/01/04 12:06:39;;;;;;;5.35;4.20;;;;;;;6.71;62.61;101659.63;4941886;28;115188;-75
2021/01/04 12:09:09;;;;;;;5.43;3.97;;;;;;;6.72;62.38;101666.63;4940538;28;115219;-74
2021/01/04 12:11:37;;;;;;;6.13;4.57;;;;;;;6.72;62.55;101652.59;4940736;28;122909;-74
2021/01/04 12:14:05;;;;;;;5.93;4.38;;;;;;;6.71;62.52;101646.47;4941343;28;123885;-74